Time,TemperatureF,DewpointF,PressureIn,WindDirection,WindDirectionDegrees,WindSpeedMPH,WindSpeedGustMPH,Humidity,HourlyPrecipIn,Conditions,Clouds,dailyrainin,SoftwareType,DateUTC
2013-06-01 00:07:00,63.9,49.0,29.49,West,281,4.0,15.0,58,0.00,,,0.00,weatherlink.com 1.10,2013-06-01 05:07:00,
2013-06-01 00:22:00,62.9,49.0,29.49,West,271,5.0,13.0,60,0.00,,,0.00,weatherlink.com 1.10,2013-06-01 05:22:00,
2013-06-01 00:37:00,61.8,49.0,29.49,WNW,293,3.0,9.0,63,0.00,,,0.00,weatherlink.com 1.10,2013-06-01 05:37:00,
2013-06-01 00:52:00,61.3,49.0,29.48,West,279,2.0,11.0,64,0.00,,,0.00,weatherlink.com 1.10,2013-06-01 05:52:00,
2013-06-01 01:08:00,61.1,49.0,29.48,NW,309,3.0,12.0,64,0.00,,,0.00,weatherlink.com 1.10,2013-06-01 06:08:00,
2013-06-01 01:23:00,60.7,49.0,29.47,WSW,253,9.0,12.0,65,0.00,,,0.00,weatherlink.com 1.10,2013-06-01 06:23:00,
2013-06-01 01:38:00,60.4,49.0,29.46,East,82,5.0,14.0,66,0.00,,,0.00,weatherlink.com 1.10,2013-06-01 06:38:00,
2013-06-01 01:53:00,60.2,49.0,29.46,WNW,298,3.0,8.0,66,0.00,,,0.00,weatherlink.com 1.10,2013-06-01 06:53:00,
2013-06-01 02:08:00,59.9,49.0,29.46,WSW,238,5.0,7.0,67,0.00,,,0.00,weatherlink.com 1.10,2013-06-01 07:08:00,
2013-06-01 02:23:00,59.7,49.0,29.45,ENE,62,6.0,9.0,67,0.00,,,0.00,weatherlink.com 1.10,2013-06-01 07:23:00,
2013-06-01 02:38:00,59.5,48.0,29.45,WSW,250,5.0,7.0,67,0.00,,,0.00,weatherlink.com 1.10,2013-06-01 07:38:00,
2013-06-01 02:53:00,59.2,49.0,29.44,WSW,239,4.0,8.0,69,0.00,,,0.00,weatherlink.com 1.10,2013-06-01 07:53:00,
2013-06-01 03:08:00,58.9,49.0,29.44,NW,312,3.0,7.0,69,0.00,,,0.00,weatherlink.com 1.10,2013-06-01 08:08:00,
2013-06-01 03:23:00,58.7,49.0,29.44,South,188,2.0,10.0,70,0.00,,,0.00,weatherlink.com 1.10,2013-06-01 08:23:00,
2013-06-01 03:38:00,58.5,49.0,29.44,SSE,165,4.0,10.0,71,0.00,,,0.00,weatherlink.com 1.10,2013-06-01 08:38:00,
2013-06-01 03:53:00,58.6,49.0,29.44,West,270,5.0,11.0,71,0.00,,,0.00,weatherlink.com 1.10,2013-06-01 08:53:00,
2013-06-01 04:08:00,58.5,49.0,29.44,NW,326,5.0,14.0,71,0.00,,,0.00,weatherlink.com 1.10,2013-06-01 09:08:00,
2013-06-01 04:23:00,58.2,49.0,29.44,WNW,290,7.0,18.0,72,0.00,,,0.00,weatherlink.com 1.10,2013-06-01 09:23:00,
2013-06-01 04:38:00,57.9,49.0,29.45,West,267,6.0,13.0,73,0.00,,,0.00,weatherlink.com 1.10,2013-06-01 09:38:00,
2013-06-01 04:53:00,57.5,49.0,29.45,West,274,4.0,13.0,74,0.00,,,0.00,weatherlink.com 1.10,2013-06-01 09:53:00,
2013-06-01 05:08:00,57.1,49.0,29.46,NNE,33,4.0,11.0,75,0.00,,,0.00,weatherlink.com 1.10,2013-06-01 10:08:00,
2013-06-01 05:23:00,57.0,49.0,29.47,West,267,4.0,10.0,75,0.00,,,0.00,weatherlink.com 1.10,2013-06-01 10:23:00,
2013-06-01 05:38:00,57.0,50.0,29.47,NW,310,4.0,11.0,76,0.00,,,0.00,weatherlink.com 1.10,2013-06-01 10:38:00,
2013-06-01 05:53:00,57.0,50.0,29.46,WNW,291,2.0,12.0,76,0.00,,,0.00,weatherlink.com 1.10,2013-06-01 10:53:00,
2013-06-01 06:08:00,57.0,50.0,29.46,West,278,9.0,13.0,76,0.00,,,0.00,weatherlink.com 1.10,2013-06-01 11:08:00,
2013-06-01 06:23:00,57.2,49.0,29.46,West,278,8.0,16.0,75,0.00,,,0.00,weatherlink.com 1.10,2013-06-01 11:23:00,
2013-06-01 06:38:00,57.3,50.0,29.47,WSW,248,5.0,11.0,76,0.00,,,0.00,weatherlink.com 1.10,2013-06-01 11:38:00,
2013-06-01 06:53:00,57.4,50.0,29.47,NW,307,6.0,13.0,76,0.00,,,0.00,weatherlink.com 1.10,2013-06-01 11:53:00,
2013-06-01 07:08:00,57.5,50.0,29.48,WNW,293,8.0,14.0,77,0.00,,,0.00,weatherlink.com 1.10,2013-06-01 12:08:00,
2013-06-01 07:23:00,57.6,51.0,29.48,WNW,284,8.0,11.0,78,0.00,,,0.00,weatherlink.com 1.10,2013-06-01 12:23:00,
2013-06-01 07:38:00,57.8,51.0,29.48,SW,220,5.0,16.0,78,0.00,,,0.00,weatherlink.com 1.10,2013-06-01 12:38:00,
2013-06-01 07:53:00,58.2,52.0,29.48,West,276,7.0,15.0,79,0.00,,,0.00,weatherlink.com 1.10,2013-06-01 12:53:00,
2013-06-01 08:08:00,58.6,52.0,29.48,SW,231,6.0,15.0,79,0.00,,,0.00,weatherlink.com 1.10,2013-06-01 13:08:00,
2013-06-01 08:23:00,59.4,53.0,29.49,NNE,30,5.0,22.0,79,0.00,,,0.00,weatherlink.com 1.10,2013-06-01 13:23:00,
2013-06-01 08:38:00,59.5,53.0,29.50,WNW,295,12.0,21.0,80,0.00,,,0.00,weatherlink.com 1.10,2013-06-01 13:38:00,
2013-06-01 08:53:00,60.5,54.0,29.50,West,264,10.0,18.0,80,0.00,,,0.00,weatherlink.com 1.10,2013-06-01 13:53:00,
2013-06-01 09:08:00,60.6,54.0,29.50,West,266,7.0,22.0,80,0.00,,,0.00,weatherlink.com 1.10,2013-06-01 14:08:00,
2013-06-01 09:23:00,61.2,55.0,29.51,West,280,17.0,20.0,80,0.00,,,0.00,weatherlink.com 1.10,2013-06-01 14:23:00,
2013-06-01 09:39:00,61.3,55.0,29.51,WNW,288,10.0,19.0,80,0.00,,,0.00,weatherlink.com 1.10,2013-06-01 14:39:00,
2013-06-01 09:54:00,60.9,55.0,29.52,WNW,287,18.0,30.0,81,0.00,,,0.00,weatherlink.com 1.10,2013-06-01 14:54:00,
2013-06-01 10:09:00,60.6,54.0,29.53,West,272,16.0,30.0,80,0.00,,,0.00,weatherlink.com 1.10,2013-06-01 15:09:00,
2013-06-01 10:24:00,60.3,54.0,29.52,WNW,298,24.0,30.0,80,0.00,,,0.00,weatherlink.com 1.10,2013-06-01 15:24:00,
2013-06-01 10:39:00,61.8,54.0,29.53,WNW,291,19.0,24.0,75,0.00,,,0.00,weatherlink.com 1.10,2013-06-01 15:39:00,
2013-06-01 10:54:00,60.5,54.0,29.55,West,264,10.0,23.0,78,0.00,,,0.00,weatherlink.com 1.10,2013-06-01 15:54:00,
2013-06-01 11:09:00,59.8,53.0,29.55,WNW,287,21.0,24.0,77,0.00,,,0.00,weatherlink.com 1.10,2013-06-01 16:09:00,
2013-06-01 11:24:00,60.5,53.0,29.56,WNW,295,11.0,23.0,77,0.00,,,0.00,weatherlink.com 1.10,2013-06-01 16:24:00,
2013-06-01 11:39:00,59.9,53.0,29.57,West,277,13.0,22.0,77,0.00,,,0.00,weatherlink.com 1.10,2013-06-01 16:39:00,
2013-06-01 11:54:00,60.1,53.0,29.58,West,278,18.0,24.0,76,0.00,,,0.00,weatherlink.com 1.10,2013-06-01 16:54:00,
2013-06-01 12:09:00,59.0,53.0,29.58,West,277,17.0,31.0,79,0.00,,,0.00,weatherlink.com 1.10,2013-06-01 17:09:00,
2013-06-01 12:24:00,59.7,53.0,29.59,WNW,285,16.0,22.0,78,0.00,,,0.00,weatherlink.com 1.10,2013-06-01 17:24:00,
2013-06-01 12:39:00,59.8,53.0,29.59,WNW,293,11.0,24.0,77,0.00,,,0.00,weatherlink.com 1.10,2013-06-01 17:39:00,
2013-06-01 12:54:00,58.4,53.0,29.61,West,278,15.0,26.0,83,0.00,,,0.00,weatherlink.com 1.10,2013-06-01 17:54:00,
2013-06-01 13:09:00,57.2,54.0,29.61,WNW,284,10.0,20.0,88,0.02,,,0.02,weatherlink.com 1.10,2013-06-01 18:09:00,
2013-06-01 13:24:00,57.7,54.0,29.61,WNW,282,13.0,13.0,88,0.02,,,0.02,weatherlink.com 1.10,2013-06-01 18:24:00,
2013-06-01 13:39:00,58.3,55.0,29.61,WNW,298,13.0,21.0,87,0.02,,,0.02,weatherlink.com 1.10,2013-06-01 18:39:00,
2013-06-01 13:54:00,58.2,55.0,29.62,West,267,6.0,19.0,89,0.01,,,0.02,weatherlink.com 1.10,2013-06-01 18:54:00,
2013-06-01 14:09:00,58.6,54.0,29.63,WNW,286,18.0,25.0,84,0.01,,,0.03,weatherlink.com 1.10,2013-06-01 19:09:00,
2013-06-01 14:24:00,58.4,54.0,29.64,WNW,285,8.0,21.0,85,0.01,,,0.03,weatherlink.com 1.10,2013-06-01 19:24:00,
2013-06-01 14:39:00,58.5,53.0,29.63,WNW,288,12.0,19.0,83,0.01,,,0.03,weatherlink.com 1.10,2013-06-01 19:39:00,
2013-06-01 14:54:00,58.7,54.0,29.64,WNW,284,10.0,17.0,83,0.00,,,0.03,weatherlink.com 1.10,2013-06-01 19:54:00,
2013-06-01 15:09:00,58.8,54.0,29.64,NW,310,11.0,22.0,84,0.00,,,0.03,weatherlink.com 1.10,2013-06-01 20:09:00,
2013-06-01 15:24:00,58.7,54.0,29.65,WNW,300,10.0,18.0,84,0.00,,,0.03,weatherlink.com 1.10,2013-06-01 20:24:00,
2013-06-01 15:39:00,58.7,54.0,29.65,WNW,288,4.0,16.0,85,0.00,,,0.03,weatherlink.com 1.10,2013-06-01 20:39:00,
2013-06-01 15:54:00,59.7,54.0,29.66,NW,311,12.0,21.0,80,0.00,,,0.03,weatherlink.com 1.10,2013-06-01 20:54:00,
2013-06-01 16:09:00,59.6,53.0,29.66,NNW,332,10.0,20.0,80,0.00,,,0.03,weatherlink.com 1.10,2013-06-01 21:09:00,
2013-06-01 16:24:00,60.1,53.0,29.66,WNW,292,18.0,25.0,76,0.00,,,0.03,weatherlink.com 1.10,2013-06-01 21:24:00,
2013-06-01 16:39:00,60.7,53.0,29.66,WNW,302,8.0,22.0,77,0.00,,,0.03,weatherlink.com 1.10,2013-06-01 21:39:00,
2013-06-01 16:54:00,61.4,53.0,29.66,WNW,298,18.0,22.0,74,0.00,,,0.03,weatherlink.com 1.10,2013-06-01 21:54:00,
2013-06-01 17:10:00,61.5,54.0,29.67,NW,304,16.0,28.0,75,0.00,,,0.03,weatherlink.com 1.10,2013-06-01 22:10:00,
2013-06-01 17:25:00,60.9,54.0,29.68,West,280,13.0,22.0,77,0.00,,,0.03,weatherlink.com 1.10,2013-06-01 22:25:00,
2013-06-01 17:40:00,60.6,53.0,29.68,WNW,292,11.0,25.0,75,0.00,,,0.03,weatherlink.com 1.10,2013-06-01 22:40:00,
2013-06-01 17:55:00,60.4,52.0,29.69,WNW,285,12.0,24.0,75,0.00,,,0.03,weatherlink.com 1.10,2013-06-01 22:55:00,
2013-06-01 18:10:00,59.7,51.0,29.70,NW,305,20.0,26.0,74,0.00,,,0.03,weatherlink.com 1.10,2013-06-01 23:10:00,
2013-06-01 18:25:00,59.7,51.0,29.70,WNW,290,13.0,27.0,73,0.00,,,0.03,weatherlink.com 1.10,2013-06-01 23:25:00,
2013-06-01 18:40:00,59.5,51.0,29.70,West,277,17.0,21.0,74,0.00,,,0.03,weatherlink.com 1.10,2013-06-01 23:40:00,
2013-06-01 18:55:00,59.5,51.0,29.71,WNW,292,12.0,20.0,74,0.00,,,0.03,weatherlink.com 1.10,2013-06-01 23:55:00,
2013-06-01 19:10:00,59.1,51.0,29.71,NW,312,13.0,22.0,74,0.00,,,0.03,weatherlink.com 1.10,2013-06-02 00:10:00,
2013-06-01 19:25:00,58.7,51.0,29.72,WNW,300,10.0,23.0,76,0.00,,,0.03,weatherlink.com 1.10,2013-06-02 00:25:00,
2013-06-01 19:40:00,58.4,51.0,29.73,WNW,295,12.0,19.0,75,0.00,,,0.03,weatherlink.com 1.10,2013-06-02 00:40:00,
2013-06-01 19:55:00,58.3,50.0,29.74,WNW,294,13.0,19.0,75,0.00,,,0.03,weatherlink.com 1.10,2013-06-02 00:55:00,
2013-06-01 20:10:00,58.2,51.0,29.75,NNW,345,13.0,17.0,76,0.00,,,0.03,weatherlink.com 1.10,2013-06-02 01:10:00,
2013-06-01 20:25:00,58.0,50.0,29.76,WNW,286,22.0,22.0,75,0.00,,,0.03,weatherlink.com 1.10,2013-06-02 01:25:00,
2013-06-01 20:40:00,57.5,50.0,29.76,WNW,301,14.0,25.0,75,0.00,,,0.03,weatherlink.com 1.10,2013-06-02 01:40:00,
2013-06-01 20:55:00,56.9,50.0,29.77,WNW,290,10.0,18.0,77,0.00,,,0.03,weatherlink.com 1.10,2013-06-02 01:55:00,
2013-06-01 21:10:00,56.6,49.0,29.78,NW,304,12.0,22.0,76,0.00,,,0.03,weatherlink.com 1.10,2013-06-02 02:10:00,
2013-06-01 21:25:00,56.4,49.0,29.78,WNW,300,8.0,17.0,77,0.00,,,0.03,weatherlink.com 1.10,2013-06-02 02:25:00,
2013-06-01 21:40:00,56.3,49.0,29.79,WNW,291,11.0,18.0,76,0.00,,,0.03,weatherlink.com 1.10,2013-06-02 02:40:00,
2013-06-01 21:55:00,56.3,49.0,29.79,WNW,300,12.0,21.0,76,0.00,,,0.03,weatherlink.com 1.10,2013-06-02 02:55:00,
2013-06-01 22:10:00,56.1,49.0,29.80,WNW,298,12.0,16.0,77,0.00,,,0.03,weatherlink.com 1.10,2013-06-02 03:10:00,
2013-06-01 22:25:00,56.0,49.0,29.80,WNW,300,10.0,17.0,77,0.00,,,0.03,weatherlink.com 1.10,2013-06-02 03:25:00,
2013-06-01 22:40:00,55.7,49.0,29.80,NW,316,9.0,19.0,78,0.00,,,0.03,weatherlink.com 1.10,2013-06-02 03:40:00,
2013-06-01 22:55:00,55.3,49.0,29.80,WNW,288,13.0,21.0,78,0.00,,,0.03,weatherlink.com 1.10,2013-06-02 03:55:00,
2013-06-01 23:10:00,55.1,49.0,29.81,WNW,294,13.0,17.0,79,0.00,,,0.03,weatherlink.com 1.10,2013-06-02 04:10:00,
2013-06-01 23:25:00,55.1,49.0,29.81,NW,304,13.0,18.0,79,0.00,,,0.03,weatherlink.com 1.10,2013-06-02 04:25:00,
2013-06-01 23:40:00,55.1,49.0,29.81,WNW,295,13.0,20.0,79,0.00,,,0.03,weatherlink.com 1.10,2013-06-02 04:40:00,
2013-06-01 23:55:00,55.0,49.0,29.81,NW,304,8.0,17.0,80,0.00,,,0.03,weatherlink.com 1.10,2013-06-02 04:55:00,